createdAt,value
2019-04-06T00:02:30.197Z,101047.37
2019-04-06T00:04:59.827Z,101046.59
2019-04-06T00:07:29.934Z,101031.16
2019-04-06T00:09:59.824Z,101025.92
2019-04-06T00:12:29.905Z,101022.09
2019-04-06T00:14:59.812Z,101018.50
2019-04-06T00:17:29.898Z,101021.48
2019-04-06T00:19:59.741Z,101012.64
2019-04-06T00:22:29.495Z,101011.22
2019-04-06T00:24:59.368Z,101013.55
2019-04-06T00:27:29.326Z,101010.27
2019-04-06T00:29:59.128Z,100994.42
2019-04-06T00:32:35.853Z,100996.23
2019-04-06T00:35:06.110Z,100993.49
2019-04-06T00:37:36.005Z,100992.13
2019-04-06T00:40:06.316Z,100986.20
2019-04-06T00:42:36.166Z,100980.80
2019-04-06T00:45:06.409Z,100974.62
2019-04-06T00:47:36.184Z,100979.58
2019-04-06T00:50:06.638Z,100980.03
2019-04-06T00:52:36.639Z,100973.94
2019-04-06T00:55:06.580Z,100962.80
2019-04-06T00:57:36.592Z,100956.59
2019-04-06T01:00:06.678Z,100945.84
2019-04-06T01:02:36.631Z,100945.91
2019-04-06T01:05:07.362Z,100950.80
2019-04-06T01:07:37.260Z,100954.81
2019-04-06T01:10:07.649Z,100943.26
2019-04-06T01:12:37.555Z,100946.30
2019-04-06T01:15:07.650Z,100948.20
2019-04-06T01:17:37.614Z,100948.87
2019-04-06T01:20:08.096Z,100951.87
2019-04-06T01:22:37.914Z,100945.70
2019-04-06T01:25:08.174Z,100952.41
2019-04-06T01:27:38.151Z,100951.05
2019-04-06T01:30:08.769Z,100948.53
2019-04-06T01:32:38.630Z,100939.13
2019-04-06T01:35:08.801Z,100934.55
2019-04-06T01:37:38.731Z,100931.36
2019-04-06T01:40:09.501Z,100922.84
2019-04-06T01:42:39.292Z,100922.52
2019-04-06T01:45:09.197Z,100929.22
2019-04-06T01:47:39.054Z,100930.00
2019-04-06T01:50:09.383Z,100935.92
2019-04-06T01:52:39.252Z,100936.53
2019-04-06T01:55:09.095Z,100934.69
2019-04-06T01:57:39.074Z,100922.81
2019-04-06T02:00:11.886Z,100917.50
2019-04-06T02:02:43.907Z,100913.52
2019-04-06T02:05:14.095Z,100909.41
2019-04-06T02:07:43.873Z,100910.70
2019-04-06T02:10:14.001Z,100907.70
2019-04-06T02:12:43.906Z,100904.66
2019-04-06T02:15:14.284Z,100908.55
2019-04-06T02:17:44.144Z,100908.61
2019-04-06T02:20:14.169Z,100901.17
2019-04-06T02:22:44.096Z,100906.19
2019-04-06T02:25:14.011Z,100906.88
2019-04-06T02:27:43.724Z,100909.33
2019-04-06T02:30:40.184Z,100905.75
2019-04-06T02:33:26.957Z,100904.56
2019-04-06T02:36:13.259Z,100907.83
2019-04-06T02:39:05.001Z,100900.45
2019-04-06T02:41:50.031Z,100904.23
2019-04-06T02:44:19.805Z,100908.80
2019-04-06T02:46:49.810Z,100893.21
2019-04-06T02:49:19.673Z,100886.91
2019-04-06T02:51:49.452Z,100882.86
2019-04-06T02:54:19.256Z,100875.59
2019-04-06T02:56:49.183Z,100882.51
2019-04-06T02:59:19.246Z,100877.78
2019-04-06T03:01:49.033Z,100878.36
2019-04-06T03:04:19.138Z,100867.79
2019-04-06T03:06:49.156Z,100870.92
2019-04-06T03:09:19.107Z,100868.27
2019-04-06T03:11:49.038Z,100882.73
2019-04-06T03:14:19.274Z,100880.81
2019-04-06T03:16:49.011Z,100883.19
2019-04-06T03:19:18.770Z,100877.63
2019-04-06T03:21:48.539Z,100879.20
2019-04-06T03:24:18.365Z,100875.64
2019-04-06T03:26:59.827Z,100873.34
2019-04-06T03:29:19.696Z,100873.33
2019-04-06T03:31:49.548Z,100875.31
2019-04-06T03:34:21.614Z,100882.38
2019-04-06T03:36:51.125Z,100876.75
2019-04-06T03:39:20.924Z,100887.39
2019-04-06T03:41:50.652Z,100892.27
2019-04-06T03:44:20.408Z,100880.05
2019-04-06T03:46:50.365Z,100887.45
2019-04-06T03:49:20.089Z,100890.48
2019-04-06T03:51:50.113Z,100883.44
2019-04-06T03:54:19.871Z,100892.52
2019-04-06T03:56:51.061Z,100889.98
2019-04-06T03:59:20.892Z,100899.44
2019-04-06T04:01:50.758Z,100897.46
2019-04-06T04:04:20.506Z,100910.39
2019-04-06T04:06:50.647Z,100903.83
2019-04-06T04:09:20.509Z,100909.69
2019-04-06T04:11:50.385Z,100903.97
2019-04-06T04:14:20.291Z,100907.52
2019-04-06T04:16:50.267Z,100905.89
2019-04-06T04:19:20.092Z,100901.06
2019-04-06T04:21:49.727Z,100904.20
2019-04-06T04:24:20.811Z,100913.42
2019-04-06T04:26:50.768Z,100909.97
2019-04-06T04:29:20.482Z,100913.32
2019-04-06T04:31:50.473Z,100922.82
2019-04-06T04:34:20.172Z,100915.05
2019-04-06T04:36:50.122Z,100919.54
2019-04-06T04:39:20.072Z,100913.28
2019-04-06T04:41:49.813Z,100918.13
2019-04-06T04:44:19.651Z,100914.34
2019-04-06T04:46:49.629Z,100920.57
2019-04-06T04:49:19.458Z,100923.95
2019-04-06T04:51:49.035Z,100927.52
2019-04-06T04:54:18.953Z,100925.53
2019-04-06T04:56:48.906Z,100931.30
2019-04-06T04:59:18.715Z,100923.91
2019-04-06T05:01:48.736Z,100933.78
2019-04-06T05:04:18.518Z,100931.41
2019-04-06T05:06:48.371Z,100930.61
2019-04-06T05:09:18.854Z,100926.02
2019-04-06T05:11:49.102Z,100929.89
2019-04-06T05:14:54.341Z,100941.19
2019-04-06T05:17:24.296Z,100935.47
2019-04-06T05:19:55.007Z,100939.98
2019-04-06T05:22:24.921Z,100939.67
2019-04-06T05:24:55.882Z,100935.05
2019-04-06T05:27:26.009Z,100934.67
2019-04-06T05:29:55.675Z,100940.02
2019-04-06T05:32:25.521Z,100940.66
2019-04-06T05:34:57.890Z,100934.60
2019-04-06T05:37:26.899Z,100938.48
2019-04-06T05:39:56.671Z,100932.77
2019-04-06T05:42:26.645Z,100934.48
2019-04-06T05:44:56.508Z,100944.48
2019-04-06T05:47:27.567Z,100948.36
2019-04-06T05:49:57.494Z,100946.48
2019-04-06T05:52:27.280Z,100946.20
2019-04-06T05:54:57.330Z,100948.70
2019-04-06T05:57:27.269Z,100947.06
2019-04-06T05:59:57.080Z,100945.77
2019-04-06T06:02:26.945Z,100947.83
2019-04-06T06:04:56.824Z,100960.22
2019-04-06T06:07:26.670Z,100961.56
2019-04-06T06:09:56.496Z,100958.87
2019-04-06T06:12:26.374Z,100962.87
2019-04-06T06:14:56.366Z,100967.53
2019-04-06T06:17:25.940Z,100963.06
2019-04-06T06:19:55.797Z,100959.11
2019-04-06T06:22:25.578Z,100961.00
2019-04-06T06:24:55.395Z,100964.09
2019-04-06T06:27:26.538Z,100970.40
2019-04-06T06:29:56.355Z,100967.98
2019-04-06T06:32:26.261Z,100980.59
2019-04-06T06:34:56.100Z,100988.52
2019-04-06T06:37:25.785Z,100989.47
2019-04-06T06:39:55.625Z,100991.78
2019-04-06T06:42:25.361Z,100989.73
2019-04-06T06:44:55.464Z,100996.69
2019-04-06T06:47:25.252Z,100990.49
2019-04-06T06:49:56.501Z,100993.14
2019-04-06T06:52:26.214Z,100999.09
2019-04-06T06:54:56.313Z,100991.41
2019-04-06T06:57:26.042Z,100994.28
2019-04-06T06:59:56.027Z,101001.11
2019-04-06T07:02:25.790Z,100994.88
2019-04-06T07:04:56.948Z,100989.77
2019-04-06T07:07:26.844Z,100996.75
2019-04-06T07:10:05.490Z,101000.28
2019-04-06T07:12:28.144Z,101007.22
2019-04-06T07:14:58.018Z,101007.50
2019-04-06T07:17:27.849Z,100999.20
2019-04-06T07:19:58.782Z,101002.08
2019-04-06T07:22:28.587Z,100999.41
2019-04-06T07:24:58.395Z,100998.47
2019-04-06T07:27:28.300Z,101007.50
2019-04-06T07:29:58.248Z,101007.95
2019-04-06T07:32:28.109Z,101013.91
2019-04-06T07:34:58.012Z,101009.16
2019-04-06T07:37:27.886Z,101010.78
2019-04-06T07:39:57.895Z,101011.70
2019-04-06T07:42:27.538Z,101011.48
2019-04-06T07:44:57.326Z,101007.84
2019-04-06T07:47:27.218Z,101013.47
2019-04-06T07:49:56.961Z,101016.37
2019-04-06T07:52:26.798Z,101020.99
2019-04-06T07:54:56.814Z,101023.42
2019-04-06T07:57:26.715Z,101017.55
2019-04-06T07:59:56.516Z,101015.53
2019-04-06T08:02:26.699Z,101008.38
2019-04-06T08:04:56.554Z,101015.44
2019-04-06T08:07:26.471Z,101015.30
2019-04-06T08:09:56.435Z,101008.88
2019-04-06T08:12:26.317Z,101004.71
2019-04-06T08:14:57.522Z,101007.86
2019-04-06T08:17:27.375Z,101009.36
2019-04-06T08:19:57.301Z,101011.41
2019-04-06T08:22:28.570Z,101008.27
2019-04-06T08:24:58.254Z,100998.08
2019-04-06T08:27:28.084Z,100991.32
2019-04-06T08:29:58.240Z,100998.69
2019-04-06T08:32:27.784Z,101003.02
2019-04-06T08:34:57.876Z,100997.80
2019-04-06T08:37:29.028Z,100988.79
2019-04-06T08:39:58.924Z,100992.13
2019-04-06T08:42:28.813Z,100982.91
2019-04-06T08:44:58.862Z,100981.34
2019-04-06T08:47:29.864Z,100981.16
2019-04-06T08:49:59.734Z,100984.53
2019-04-06T08:52:29.377Z,100988.77
2019-04-06T08:54:59.225Z,100988.42
2019-04-06T08:57:29.071Z,100985.77
2019-04-06T08:59:59.187Z,100991.34
2019-04-06T09:02:28.898Z,100991.83
2019-04-06T09:04:58.698Z,100987.59
2019-04-06T09:07:28.421Z,100984.95
2019-04-06T09:09:58.370Z,100993.10
2019-04-06T09:12:28.113Z,100997.97
2019-04-06T09:14:58.091Z,100991.00
2019-04-06T09:17:27.954Z,100988.69
2019-04-06T09:19:57.935Z,100996.29
2019-04-06T09:22:27.730Z,100985.71
2019-04-06T09:24:57.699Z,100983.31
2019-04-06T09:27:27.620Z,100978.44
2019-04-06T09:29:57.537Z,100981.22
2019-04-06T09:32:27.345Z,100983.94
2019-04-06T09:34:58.541Z,100988.34
2019-04-06T09:37:28.293Z,100982.97
2019-04-06T09:39:58.122Z,100992.09
2019-04-06T09:42:28.088Z,100979.33
2019-04-06T09:45:19.662Z,100967.80
2019-04-06T09:47:59.983Z,100965.70
2019-04-06T09:50:54.618Z,100966.42
2019-04-06T09:53:46.046Z,100973.97
2019-04-06T09:56:42.056Z,100980.20
2019-04-06T09:59:35.883Z,100971.91
2019-04-06T10:02:11.953Z,100972.78
2019-04-06T10:05:15.547Z,100970.81
2019-04-06T10:07:59.342Z,100964.69
2019-04-06T10:10:39.231Z,100973.64
2019-04-06T10:13:39.874Z,100963.56
2019-04-06T10:16:26.909Z,100968.55
2019-04-06T10:19:24.653Z,100959.68
2019-04-06T10:22:31.726Z,100961.77
2019-04-06T10:25:10.891Z,100962.26
2019-04-06T10:27:55.612Z,100950.86
2019-04-06T10:30:59.836Z,100952.06
2019-04-06T10:33:51.173Z,100947.42
2019-04-06T10:36:42.660Z,100953.12
2019-04-06T10:39:23.477Z,100949.80
2019-04-06T10:42:04.926Z,100946.22
2019-04-06T10:45:08.711Z,100946.55
2019-04-06T10:48:00.288Z,100942.16
2019-04-06T10:50:50.359Z,100937.50
2019-04-06T10:53:48.596Z,100938.20
2019-04-06T10:56:35.802Z,100935.48
2019-04-06T10:59:31.856Z,100937.88
2019-04-06T11:02:20.531Z,100923.77
2019-04-06T11:05:13.284Z,100927.16
2019-04-06T11:08:04.529Z,100933.71
2019-04-06T11:10:58.705Z,100928.16
2019-04-06T11:13:46.111Z,100933.71
2019-04-06T11:16:43.651Z,100930.20
2019-04-06T11:19:34.903Z,100927.21
2019-04-06T11:22:18.009Z,100921.58
2019-04-06T11:25:09.243Z,100918.34
2019-04-06T11:28:04.513Z,100891.72
2019-04-06T11:30:43.436Z,100916.83
2019-04-06T11:33:38.578Z,100913.48
2019-04-06T11:36:32.946Z,100906.34
2019-04-06T11:39:12.234Z,100903.30
2019-04-06T11:42:12.854Z,100907.98
2019-04-06T11:45:01.976Z,100905.50
2019-04-06T11:47:48.692Z,100900.69
2019-04-06T11:50:26.276Z,100910.39
2019-04-06T11:53:08.942Z,100895.42
2019-04-06T11:55:49.471Z,100891.58
2019-04-06T11:58:33.609Z,100897.10
2019-04-06T12:01:34.634Z,100886.98
2019-04-06T12:04:32.847Z,100879.92
2019-04-06T12:07:20.777Z,100885.06
2019-04-06T12:10:03.024Z,100879.70
2019-04-06T12:13:06.913Z,100874.55
2019-04-06T12:15:55.480Z,100867.83
2019-04-06T12:18:41.594Z,100864.21
2019-04-06T12:21:35.916Z,100861.39
2019-04-06T12:24:25.100Z,100862.58
2019-04-06T12:27:29.633Z,100856.56
2019-04-06T12:30:42.004Z,100862.23
2019-04-06T12:33:29.227Z,100864.63
2019-04-06T12:36:20.663Z,100861.83
2019-04-06T12:38:58.681Z,100858.63
2019-04-06T12:41:53.784Z,100862.36
2019-04-06T12:44:39.087Z,100854.40
2019-04-06T12:47:39.541Z,100851.14
2019-04-06T12:50:18.403Z,100844.08
2019-04-06T12:53:09.351Z,100853.20
2019-04-06T12:56:05.069Z,100849.80
2019-04-06T12:59:03.003Z,100845.52
2019-04-06T13:01:57.981Z,100837.86
2019-04-06T13:04:53.360Z,100842.48
2019-04-06T13:07:40.362Z,100849.33
2019-04-06T13:10:35.486Z,100841.69
2019-04-06T13:13:17.346Z,100845.53
2019-04-06T13:16:05.909Z,100837.60
2019-04-06T13:18:41.683Z,100841.59
2019-04-06T13:21:47.079Z,100841.61
2019-04-06T13:24:41.603Z,100838.23
2019-04-06T13:27:26.460Z,100833.77
2019-04-06T13:30:08.045Z,100832.55
2019-04-06T13:32:57.298Z,100821.95
2019-04-06T13:35:36.552Z,100812.73
2019-04-06T13:38:36.101Z,100813.50
2019-04-06T13:41:25.489Z,100814.88
2019-04-06T13:44:05.137Z,100822.56
2019-04-06T13:46:48.913Z,100813.88
2019-04-06T13:49:36.391Z,100812.25
2019-04-06T13:52:15.198Z,100820.66
2019-04-06T13:55:02.306Z,100825.47
2019-04-06T13:57:54.537Z,100819.05
2019-04-06T14:00:30.574Z,100801.52
2019-04-06T14:03:15.815Z,100815.12
2019-04-06T14:06:22.800Z,100816.34
2019-04-06T14:09:12.123Z,100816.58
2019-04-06T14:12:04.751Z,100808.39
2019-04-06T14:14:47.911Z,100808.06
2019-04-06T14:17:35.007Z,100816.91
2019-04-06T14:20:33.042Z,100818.73
2019-04-06T14:23:37.218Z,100820.50
2019-04-06T14:26:23.129Z,100823.48
2019-04-06T14:28:59.837Z,100819.95
2019-04-06T14:31:45.277Z,100829.77
2019-04-06T14:34:49.128Z,100820.89
2019-04-06T14:37:36.522Z,100836.61
2019-04-06T14:40:30.457Z,100833.81
2019-04-06T14:43:22.478Z,100831.56
2019-04-06T14:46:08.885Z,100831.38
2019-04-06T14:48:51.160Z,100836.20
2019-04-06T14:51:28.160Z,100834.80
2019-04-06T14:54:18.439Z,100843.58
2019-04-06T14:57:10.205Z,100844.19
2019-04-06T15:00:12.039Z,100851.35
2019-04-06T15:03:09.617Z,100842.34
2019-04-06T15:05:57.236Z,100851.42
2019-04-06T15:09:01.129Z,100843.80
2019-04-06T15:11:47.695Z,100846.59
2019-04-06T15:14:36.369Z,100841.63
2019-04-06T15:17:21.779Z,100848.95
2019-04-06T15:20:15.003Z,100841.50
2019-04-06T15:23:09.636Z,100840.80
2019-04-06T15:25:47.999Z,100840.87
2019-04-06T15:28:45.937Z,100844.52
2019-04-06T15:31:27.981Z,100837.34
2019-04-06T15:34:12.856Z,100843.30
2019-04-06T15:36:55.602Z,100848.76
2019-04-06T15:39:43.437Z,100847.76
2019-04-06T15:42:24.764Z,100850.17
2019-04-06T15:45:13.485Z,100860.77
2019-04-06T15:48:08.274Z,100859.86
2019-04-06T15:51:04.027Z,100858.44
2019-04-06T15:53:52.644Z,100863.11
2019-04-06T15:56:32.038Z,100868.94
2019-04-06T15:59:11.305Z,100865.35
2019-04-06T16:01:59.107Z,100861.34
2019-04-06T16:04:33.611Z,100861.86
2019-04-06T16:07:15.663Z,100864.05
2019-04-06T16:10:11.310Z,100853.83
2019-04-06T16:13:04.460Z,100856.52
2019-04-06T16:16:08.292Z,100850.41
2019-04-06T16:18:49.726Z,100856.84
2019-04-06T16:21:37.609Z,100849.97
2019-04-06T16:24:19.207Z,100847.56
2019-04-06T16:27:10.640Z,100846.17
2019-04-06T16:30:17.894Z,100861.71
2019-04-06T16:33:05.516Z,100863.70
2019-04-06T16:36:06.565Z,100862.77
2019-04-06T16:38:58.470Z,100869.17
2019-04-06T16:41:38.856Z,100864.41
2019-04-06T16:44:33.110Z,100866.41
2019-04-06T16:47:22.910Z,100867.24
2019-04-06T16:50:18.101Z,100868.09
2019-04-06T16:53:05.969Z,100864.20
2019-04-06T16:56:06.806Z,100869.06
2019-04-06T16:58:58.479Z,100871.66
2019-04-06T17:01:52.205Z,100869.62
2019-04-06T17:04:36.478Z,100877.81
2019-04-06T17:07:21.493Z,100875.13
2019-04-06T17:10:15.876Z,100872.84
2019-04-06T17:13:06.401Z,100877.25
2019-04-06T17:15:42.698Z,100877.47
2019-04-06T17:18:30.407Z,100874.63
2019-04-06T17:21:31.586Z,100874.03
2019-04-06T17:24:24.923Z,100874.88
2019-04-06T17:27:16.303Z,100877.18
2019-04-06T17:29:58.841Z,100882.30
2019-04-06T17:32:38.170Z,100890.22
2019-04-06T17:35:27.553Z,100884.44
2019-04-06T17:38:22.623Z,100891.30
2019-04-06T17:41:02.777Z,100888.84
2019-04-06T17:43:47.049Z,100887.59
2019-04-06T17:46:38.464Z,100875.47
2019-04-06T17:49:29.754Z,100873.36
2019-04-06T17:52:24.186Z,100880.48
2019-04-06T17:55:04.886Z,100880.91
2019-04-06T17:57:52.270Z,100884.62
2019-04-06T18:00:38.877Z,100885.00
2019-04-06T18:03:18.233Z,100880.98
2019-04-06T18:06:05.296Z,100883.95
2019-04-06T18:08:52.745Z,100884.62
2019-04-06T18:11:30.826Z,100888.72
2019-04-06T18:14:00.805Z,100891.34
2019-04-06T18:16:33.726Z,100890.25
2019-04-06T18:19:03.415Z,100898.20
2019-04-06T18:21:33.366Z,100900.17
2019-04-06T18:24:03.639Z,100897.09
2019-04-06T18:26:33.348Z,100893.12
2019-04-06T18:29:03.162Z,100895.16
2019-04-06T18:31:58.142Z,100899.05
2019-04-06T18:34:28.525Z,100903.35
2019-04-06T18:37:35.766Z,100891.69
2019-04-06T18:40:12.409Z,100898.88
2019-04-06T18:42:43.411Z,100901.53
2019-04-06T18:45:13.531Z,100898.30
2019-04-06T18:47:44.492Z,100887.33
2019-04-06T18:50:14.821Z,100893.81
2019-04-06T18:52:44.769Z,100890.10
2019-04-06T18:55:14.939Z,100897.87
2019-04-06T18:57:45.149Z,100895.28
2019-04-06T19:00:15.408Z,100876.17
2019-04-06T19:02:48.303Z,100877.86
2019-04-06T19:05:19.739Z,100876.52
2019-04-06T19:07:49.835Z,100870.28
2019-04-06T19:10:20.312Z,100877.47
2019-04-06T19:12:50.725Z,100884.62
2019-04-06T19:15:20.870Z,100887.77
2019-04-06T19:17:50.633Z,100887.77
2019-04-06T19:20:21.307Z,100873.83
2019-04-06T19:22:51.244Z,100878.28
2019-04-06T19:25:21.803Z,100877.78
2019-04-06T19:27:51.911Z,100877.30
2019-04-06T19:30:21.941Z,100877.61
2019-04-06T19:32:52.304Z,100875.09
2019-04-06T19:35:22.397Z,100873.09
2019-04-06T19:37:52.102Z,100866.33
2019-04-06T19:40:22.586Z,100863.17
2019-04-06T19:42:52.393Z,100865.13
2019-04-06T19:45:23.289Z,100861.58
2019-04-06T19:47:53.093Z,100849.28
2019-04-06T19:50:23.015Z,100850.78
2019-04-06T19:52:52.999Z,100851.03
2019-04-06T19:55:23.000Z,100864.29
2019-04-06T19:57:53.936Z,100864.41
2019-04-06T20:00:23.930Z,100868.70
2019-04-06T20:02:53.998Z,100869.03
2019-04-06T20:05:24.071Z,100869.66
2019-04-06T20:07:54.053Z,100863.29
2019-04-06T20:10:24.062Z,100858.17
2019-04-06T20:12:53.992Z,100847.33
2019-04-06T20:15:23.725Z,100854.39
2019-04-06T20:17:53.819Z,100853.64
2019-04-06T20:20:23.907Z,100850.89
2019-04-06T20:22:53.733Z,100856.84
2019-04-06T20:25:23.972Z,100856.40
2019-04-06T20:27:55.434Z,100853.63
2019-04-06T20:30:25.682Z,100857.34
2019-04-06T20:32:55.953Z,100854.76
2019-04-06T20:35:27.120Z,100855.78
2019-04-06T20:37:58.121Z,100850.80
2019-04-06T20:40:27.907Z,100846.45
2019-04-06T20:42:57.787Z,100854.09
2019-04-06T20:45:28.431Z,100846.83
2019-04-06T20:47:58.535Z,100853.20
2019-04-06T20:50:29.905Z,100845.34
2019-04-06T20:52:59.548Z,100851.52
2019-04-06T20:55:29.706Z,100850.14
2019-04-06T20:57:59.744Z,100854.03
2019-04-06T21:00:29.799Z,100850.58
2019-04-06T21:02:59.604Z,100846.14
2019-04-06T21:05:29.380Z,100840.48
2019-04-06T21:07:59.291Z,100831.43
2019-04-06T21:10:29.246Z,100834.13
2019-04-06T21:12:59.983Z,100831.46
2019-04-06T21:15:29.925Z,100825.23
2019-04-06T21:17:59.913Z,100823.97
2019-04-06T21:20:30.079Z,100831.56
2019-04-06T21:23:00.135Z,100840.17
2019-04-06T21:25:30.209Z,100836.63
2019-04-06T21:28:00.021Z,100833.27
2019-04-06T21:30:30.068Z,100831.72
2019-04-06T21:32:59.977Z,100819.17
2019-04-06T21:35:30.098Z,100822.98
2019-04-06T21:37:59.984Z,100820.02
2019-04-06T21:40:29.759Z,100818.62
2019-04-06T21:43:00.034Z,100816.91
2019-04-06T21:45:30.053Z,100814.33
2019-04-06T21:48:00.435Z,100800.61
2019-04-06T21:50:30.413Z,100799.70
2019-04-06T21:53:00.151Z,100797.70
2019-04-06T21:55:30.066Z,100793.47
2019-04-06T21:57:59.926Z,100788.14
2019-04-06T22:00:47.743Z,100789.36
2019-04-06T22:03:17.908Z,100780.59
2019-04-06T22:05:47.785Z,100782.09
2019-04-06T22:08:18.815Z,100780.52
2019-04-06T22:10:49.076Z,100777.14
2019-04-06T22:13:19.488Z,100769.99
2019-04-06T22:15:49.359Z,100769.19
2019-04-06T22:18:19.313Z,100769.05
2019-04-06T22:20:49.167Z,100768.00
2019-04-06T22:23:19.821Z,100766.56
2019-04-06T22:25:50.432Z,100767.50
2019-04-06T22:28:20.779Z,100751.16
2019-04-06T22:30:50.844Z,100747.52
2019-04-06T22:33:20.787Z,100746.28
2019-04-06T22:35:50.707Z,100735.13
2019-04-06T22:38:20.507Z,100719.37
2019-04-06T22:40:52.989Z,100717.55
2019-04-06T22:43:22.924Z,100721.22
2019-04-06T22:45:53.021Z,100716.20
2019-04-06T22:48:23.141Z,100715.03
2019-04-06T22:50:53.066Z,100728.85
2019-04-06T22:53:22.988Z,100728.52
2019-04-06T22:55:52.949Z,100735.06
2019-04-06T22:58:22.723Z,100729.95
2019-04-06T23:00:56.701Z,100736.64
2019-04-06T23:03:45.503Z,100723.61
2019-04-06T23:06:19.782Z,100713.45
2019-04-06T23:08:49.562Z,100717.06
2019-04-06T23:11:19.546Z,100726.50
2019-04-06T23:13:49.304Z,100726.74
2019-04-06T23:16:19.080Z,100722.27
2019-04-06T23:18:49.311Z,100724.53
2019-04-06T23:21:19.121Z,100713.30
2019-04-06T23:23:48.954Z,100717.64
2019-04-06T23:26:18.672Z,100719.58
2019-04-06T23:28:49.029Z,100718.17
2019-04-06T23:31:18.887Z,100720.02
2019-04-06T23:33:48.686Z,100712.79
2019-04-06T23:36:19.187Z,100707.77
2019-04-06T23:38:49.773Z,100712.63
2019-04-06T23:41:20.119Z,100704.63
2019-04-06T23:43:49.888Z,100713.00
2019-04-06T23:46:19.709Z,100707.56
2019-04-06T23:48:49.846Z,100702.14
2019-04-06T23:51:20.033Z,100702.02
2019-04-06T23:53:50.245Z,100709.94
2019-04-06T23:56:20.668Z,100706.36
2019-04-06T23:58:50.638Z,100708.59
